sensor_id;sensor_type;location;lat;lon;timestamp;P1;durP1;ratioP1;P2;durP2;ratioP2
5237;SDS011;2639;49.700;7.962;2022-12-07T04:13:03;674.63;;;638.90;;
5237;SDS011;2639;49.700;7.962;2022-12-07T04:16:13;539.90;;;515.10;;
5237;SDS011;2639;49.700;7.962;2022-12-07T04:19:24;565.03;;;538.60;;
5237;SDS011;2639;49.700;7.962;2022-12-07T04:22:36;572.37;;;544.80;;
5237;SDS011;2639;49.700;7.962;2022-12-07T04:25:47;583.00;;;555.70;;
5237;SDS011;2639;49.700;7.962;2022-12-07T04:28:58;574.00;;;546.07;;
5237;SDS011;2639;49.700;7.962;2022-12-07T04:32:15;562.73;;;535.33;;
5237;SDS011;2639;49.700;7.962;2022-12-07T04:35:25;525.17;;;499.33;;
5237;SDS011;2639;49.700;7.962;2022-12-07T04:38:35;555.80;;;529.57;;
5237;SDS011;2639;49.700;7.962;2022-12-07T04:41:45;545.53;;;520.00;;
5237;SDS011;2639;49.700;7.962;2022-12-07T04:44:56;494.70;;;471.27;;
5237;SDS011;2639;49.700;7.962;2022-12-07T04:48:06;548.13;;;522.57;;
5237;SDS011;2639;49.700;7.962;2022-12-07T04:51:18;570.60;;;543.07;;
5237;SDS011;2639;49.700;7.962;2022-12-07T04:54:32;566.63;;;539.53;;
5237;SDS011;2639;49.700;7.962;2022-12-07T04:57:42;636.87;;;604.93;;
5237;SDS011;2639;49.700;7.962;2022-12-07T05:00:54;537.60;;;512.50;;
5237;SDS011;2639;49.700;7.962;2022-12-07T05:04:05;618.30;;;586.60;;
5237;SDS011;2639;49.700;7.962;2022-12-07T05:07:15;514.67;;;490.63;;
5237;SDS011;2639;49.700;7.962;2022-12-07T05:10:25;629.70;;;597.17;;
5237;SDS011;2639;49.700;7.962;2022-12-07T05:13:35;608.30;;;577.67;;
5237;SDS011;2639;49.700;7.962;2022-12-07T05:16:47;589.77;;;559.97;;
5237;SDS011;2639;49.700;7.962;2022-12-07T05:19:59;591.73;;;562.10;;
5237;SDS011;2639;49.700;7.962;2022-12-07T05:23:09;575.63;;;548.33;;
5237;SDS011;2639;49.700;7.962;2022-12-07T05:26:19;599.90;;;570.63;;
5237;SDS011;2639;49.700;7.962;2022-12-07T05:29:29;626.30;;;594.37;;
5237;SDS011;2639;49.700;7.962;2022-12-07T05:32:41;597.90;;;568.70;;
5237;SDS011;2639;49.700;7.962;2022-12-07T05:35:51;571.63;;;544.03;;
5237;SDS011;2639;49.700;7.962;2022-12-07T05:39:01;578.67;;;550.83;;
5237;SDS011;2639;49.700;7.962;2022-12-07T05:42:12;549.27;;;523.20;;
5237;SDS011;2639;49.700;7.962;2022-12-07T05:45:22;581.03;;;552.43;;
5237;SDS011;2639;49.700;7.962;2022-12-07T05:48:33;592.97;;;563.40;;
5237;SDS011;2639;49.700;7.962;2022-12-07T05:51:45;605.70;;;575.23;;
5237;SDS011;2639;49.700;7.962;2022-12-07T05:54:55;627.23;;;594.80;;
5237;SDS011;2639;49.700;7.962;2022-12-07T05:58:07;645.97;;;612.93;;
5237;SDS011;2639;49.700;7.962;2022-12-07T07:22:00;537.70;;;512.27;;
5237;SDS011;2639;49.700;7.962;2022-12-07T07:25:11;1540.10;;;863.10;;
5237;SDS011;2639;49.700;7.962;2022-12-07T07:28:21;610.43;;;579.97;;
5237;SDS011;2639;49.700;7.962;2022-12-07T07:31:31;571.73;;;544.33;;
5237;SDS011;2639;49.700;7.962;2022-12-07T07:34:43;586.90;;;558.77;;
5237;SDS011;2639;49.700;7.962;2022-12-07T07:37:54;598.17;;;569.13;;
5237;SDS011;2639;49.700;7.962;2022-12-07T07:41:05;528.60;;;503.33;;
5237;SDS011;2639;49.700;7.962;2022-12-07T07:44:14;439.67;;;420.70;;
5237;SDS011;2639;49.700;7.962;2022-12-07T07:47:24;958.17;;;612.00;;
5237;SDS011;2639;49.700;7.962;2022-12-07T07:50:34;533.17;;;508.33;;
5237;SDS011;2639;49.700;7.962;2022-12-07T07:53:46;538.27;;;512.40;;
5237;SDS011;2639;49.700;7.962;2022-12-07T07:56:56;592.67;;;563.37;;
5237;SDS011;2639;49.700;7.962;2022-12-07T08:00:07;521.43;;;496.80;;
5237;SDS011;2639;49.700;7.962;2022-12-07T08:03:20;433.10;;;414.33;;
5237;SDS011;2639;49.700;7.962;2022-12-07T08:06:30;411.53;;;394.03;;
5237;SDS011;2639;49.700;7.962;2022-12-07T08:09:41;744.90;;;700.67;;
5237;SDS011;2639;49.700;7.962;2022-12-07T08:12:51;563.83;;;536.57;;
5237;SDS011;2639;49.700;7.962;2022-12-07T08:16:12;529.90;;;504.90;;
5237;SDS011;2639;49.700;7.962;2022-12-07T08:19:24;519.57;;;495.03;;
5237;SDS011;2639;49.700;7.962;2022-12-07T08:22:34;372.43;;;357.13;;
5237;SDS011;2639;49.700;7.962;2022-12-07T08:25:45;331.33;;;317.83;;
5237;SDS011;2639;49.700;7.962;2022-12-07T08:28:55;551.30;;;524.97;;
5237;SDS011;2639;49.700;7.962;2022-12-07T08:32:05;625.17;;;592.80;;
5237;SDS011;2639;49.700;7.962;2022-12-07T08:35:17;587.23;;;557.60;;
5237;SDS011;2639;49.700;7.962;2022-12-07T08:38:27;572.30;;;543.93;;
5237;SDS011;2639;49.700;7.962;2022-12-07T08:41:41;579.90;;;551.30;;
5237;SDS011;2639;49.700;7.962;2022-12-07T08:44:50;620.43;;;588.63;;
5237;SDS011;2639;49.700;7.962;2022-12-07T08:48:03;585.90;;;556.53;;
5237;SDS011;2639;49.700;7.962;2022-12-07T08:51:16;578.73;;;550.00;;
5237;SDS011;2639;49.700;7.962;2022-12-07T08:54:26;495.93;;;473.03;;
5237;SDS011;2639;49.700;7.962;2022-12-07T08:57:39;508.80;;;485.37;;
5237;SDS011;2639;49.700;7.962;2022-12-07T09:00:51;626.97;;;594.27;;
5237;SDS011;2639;49.700;7.962;2022-12-07T09:04:01;469.73;;;448.83;;
5237;SDS011;2639;49.700;7.962;2022-12-07T09:07:10;586.43;;;557.33;;
5237;SDS011;2639;49.700;7.962;2022-12-07T09:10:21;621.80;;;590.47;;
5237;SDS011;2639;49.700;7.962;2022-12-07T09:13:33;495.87;;;472.80;;
5237;SDS011;2639;49.700;7.962;2022-12-07T09:16:43;574.57;;;545.97;;
5237;SDS011;2639;49.700;7.962;2022-12-07T09:19:53;511.37;;;487.80;;
5237;SDS011;2639;49.700;7.962;2022-12-07T09:23:04;516.33;;;492.77;;
5237;SDS011;2639;49.700;7.962;2022-12-07T09:26:15;461.93;;;441.27;;
5237;SDS011;2639;49.700;7.962;2022-12-07T09:29:26;408.37;;;391.10;;
5237;SDS011;2639;49.700;7.962;2022-12-07T09:32:36;354.00;;;339.63;;
5237;SDS011;2639;49.700;7.962;2022-12-07T09:35:47;313.03;;;300.63;;
5237;SDS011;2639;49.700;7.962;2022-12-07T09:39:01;294.67;;;283.10;;
5237;SDS011;2639;49.700;7.962;2022-12-07T09:42:17;302.50;;;290.57;;
5237;SDS011;2639;49.700;7.962;2022-12-07T09:45:39;262.80;;;252.47;;
5237;SDS011;2639;49.700;7.962;2022-12-07T09:48:55;337.57;;;323.83;;
5237;SDS011;2639;49.700;7.962;2022-12-07T09:52:16;280.87;;;269.40;;
5237;SDS011;2639;49.700;7.962;2022-12-07T09:55:29;351.80;;;337.73;;
5237;SDS011;2639;49.700;7.962;2022-12-07T09:58:40;344.60;;;330.77;;
5237;SDS011;2639;49.700;7.962;2022-12-07T10:01:52;289.57;;;278.17;;
5237;SDS011;2639;49.700;7.962;2022-12-07T10:05:03;302.23;;;289.93;;
5237;SDS011;2639;49.700;7.962;2022-12-07T10:08:16;266.83;;;255.83;;
5237;SDS011;2639;49.700;7.962;2022-12-07T10:11:26;283.73;;;272.60;;
5237;SDS011;2639;49.700;7.962;2022-12-07T10:14:37;362.53;;;345.73;;
5237;SDS011;2639;49.700;7.962;2022-12-07T10:18:18;339.83;;;325.50;;
5237;SDS011;2639;49.700;7.962;2022-12-07T10:21:30;274.13;;;263.43;;
5237;SDS011;2639;49.700;7.962;2022-12-07T10:24:41;310.30;;;298.00;;
5237;SDS011;2639;49.700;7.962;2022-12-07T10:27:57;265.83;;;255.60;;
5237;SDS011;2639;49.700;7.962;2022-12-07T10:31:15;420.53;;;400.43;;
5237;SDS011;2639;49.700;7.962;2022-12-07T10:34:28;293.30;;;281.43;;
5237;SDS011;2639;49.700;7.962;2022-12-07T10:37:47;209.90;;;201.53;;
5237;SDS011;2639;49.700;7.962;2022-12-07T10:41:04;166.27;;;159.40;;
5237;SDS011;2639;49.700;7.962;2022-12-07T10:44:19;135.93;;;130.63;;
5237;SDS011;2639;49.700;7.962;2022-12-07T10:47:32;121.53;;;116.57;;
5237;SDS011;2639;49.700;7.962;2022-12-07T10:50:50;107.43;;;102.93;;
5237;SDS011;2639;49.700;7.962;2022-12-07T10:54:12;98.97;;;95.07;;
5237;SDS011;2639;49.700;7.962;2022-12-07T10:57:32;93.80;;;90.00;;
5237;SDS011;2639;49.700;7.962;2022-12-07T11:00:54;100.13;;;96.30;;
5237;SDS011;2639;49.700;7.962;2022-12-07T11:04:15;126.07;;;121.07;;
5237;SDS011;2639;49.700;7.962;2022-12-07T11:07:36;115.97;;;111.40;;
5237;SDS011;2639;49.700;7.962;2022-12-07T11:10:54;157.93;;;151.63;;
5237;SDS011;2639;49.700;7.962;2022-12-07T11:14:12;174.13;;;164.87;;
5237;SDS011;2639;49.700;7.962;2022-12-07T11:17:31;103.87;;;99.90;;
5237;SDS011;2639;49.700;7.962;2022-12-07T11:20:51;128.40;;;123.20;;
5237;SDS011;2639;49.700;7.962;2022-12-07T11:24:09;83.80;;;80.60;;
5237;SDS011;2639;49.700;7.962;2022-12-07T11:27:24;96.87;;;92.10;;
5237;SDS011;2639;49.700;7.962;2022-12-07T11:30:43;89.57;;;85.90;;
5237;SDS011;2639;49.700;7.962;2022-12-07T11:34:06;103.10;;;99.17;;
5237;SDS011;2639;49.700;7.962;2022-12-07T11:37:25;112.57;;;108.03;;
5237;SDS011;2639;49.700;7.962;2022-12-07T11:40:48;121.43;;;116.83;;
5237;SDS011;2639;49.700;7.962;2022-12-07T11:44:02;115.73;;;111.40;;
5237;SDS011;2639;49.700;7.962;2022-12-07T11:47:16;118.80;;;114.17;;
5237;SDS011;2639;49.700;7.962;2022-12-07T11:50:33;138.23;;;132.90;;
5237;SDS011;2639;49.700;7.962;2022-12-07T11:53:48;134.57;;;129.27;;
5237;SDS011;2639;49.700;7.962;2022-12-07T11:57:05;133.27;;;128.27;;
5237;SDS011;2639;49.700;7.962;2022-12-07T12:00:27;129.50;;;124.50;;
5237;SDS011;2639;49.700;7.962;2022-12-07T12:03:38;154.53;;;148.47;;
5237;SDS011;2639;49.700;7.962;2022-12-07T12:07:00;142.03;;;136.60;;
5237;SDS011;2639;49.700;7.962;2022-12-07T12:10:34;134.60;;;129.50;;
5237;SDS011;2639;49.700;7.962;2022-12-07T12:14:00;149.17;;;143.50;;
5237;SDS011;2639;49.700;7.962;2022-12-07T12:17:39;135.07;;;129.97;;
5237;SDS011;2639;49.700;7.962;2022-12-07T12:21:00;160.60;;;154.53;;
5237;SDS011;2639;49.700;7.962;2022-12-07T12:24:14;165.50;;;159.10;;
5237;SDS011;2639;49.700;7.962;2022-12-07T12:27:29;140.57;;;135.27;;
5237;SDS011;2639;49.700;7.962;2022-12-07T12:30:44;122.77;;;118.03;;
5237;SDS011;2639;49.700;7.962;2022-12-07T12:33:55;117.93;;;113.33;;
5237;SDS011;2639;49.700;7.962;2022-12-07T12:37:17;102.90;;;99.00;;
5237;SDS011;2639;49.700;7.962;2022-12-07T12:40:49;74.30;;;71.50;;
5237;SDS011;2639;49.700;7.962;2022-12-07T12:43:59;74.63;;;71.73;;
5237;SDS011;2639;49.700;7.962;2022-12-07T12:50:45;79.50;;;76.37;;
5237;SDS011;2639;49.700;7.962;2022-12-07T12:54:02;88.77;;;85.33;;
5237;SDS011;2639;49.700;7.962;2022-12-07T12:57:15;107.10;;;103.13;;
5237;SDS011;2639;49.700;7.962;2022-12-07T13:00:31;78.80;;;75.60;;
5237;SDS011;2639;49.700;7.962;2022-12-07T13:03:50;78.07;;;74.87;;
5237;SDS011;2639;49.700;7.962;2022-12-07T13:07:03;119.23;;;114.73;;
5237;SDS011;2639;49.700;7.962;2022-12-07T13:10:20;134.07;;;128.83;;
5237;SDS011;2639;49.700;7.962;2022-12-07T13:13:37;146.33;;;140.87;;
5237;SDS011;2639;49.700;7.962;2022-12-07T13:16:47;167.80;;;161.30;;
5237;SDS011;2639;49.700;7.962;2022-12-07T13:19:58;210.17;;;202.23;;
5237;SDS011;2639;49.700;7.962;2022-12-07T13:23:11;217.00;;;208.73;;
5237;SDS011;2639;49.700;7.962;2022-12-07T13:26:25;235.50;;;226.67;;
5237;SDS011;2639;49.700;7.962;2022-12-07T13:29:45;274.73;;;264.10;;
5237;SDS011;2639;49.700;7.962;2022-12-07T13:32:58;255.50;;;245.77;;
5237;SDS011;2639;49.700;7.962;2022-12-07T13:36:12;261.33;;;251.23;;
5237;SDS011;2639;49.700;7.962;2022-12-07T13:39:32;252.27;;;242.73;;
5237;SDS011;2639;49.700;7.962;2022-12-07T13:42:44;229.27;;;220.50;;
5237;SDS011;2639;49.700;7.962;2022-12-07T13:45:55;235.37;;;226.40;;
5237;SDS011;2639;49.700;7.962;2022-12-07T13:49:13;251.90;;;242.50;;
5237;SDS011;2639;49.700;7.962;2022-12-07T13:52:28;258.53;;;248.50;;
5237;SDS011;2639;49.700;7.962;2022-12-07T13:59:26;315.13;;;302.93;;
5237;SDS011;2639;49.700;7.962;2022-12-07T14:02:36;326.07;;;313.37;;
5237;SDS011;2639;49.700;7.962;2022-12-07T14:06:03;426.27;;;407.97;;
5237;SDS011;2639;49.700;7.962;2022-12-07T14:09:17;411.63;;;394.70;;
5237;SDS011;2639;49.700;7.962;2022-12-07T14:12:29;391.13;;;374.77;;
5237;SDS011;2639;49.700;7.962;2022-12-07T14:15:41;426.03;;;407.63;;
5237;SDS011;2639;49.700;7.962;2022-12-07T14:18:51;360.23;;;345.87;;
5237;SDS011;2639;49.700;7.962;2022-12-07T14:22:06;401.37;;;384.77;;
5237;SDS011;2639;49.700;7.962;2022-12-07T14:25:19;412.60;;;395.83;;
5237;SDS011;2639;49.700;7.962;2022-12-07T14:28:31;382.17;;;366.53;;
5237;SDS011;2639;49.700;7.962;2022-12-07T14:31:44;370.63;;;355.73;;
5237;SDS011;2639;49.700;7.962;2022-12-07T14:34:55;422.10;;;404.37;;
5237;SDS011;2639;49.700;7.962;2022-12-07T14:38:07;475.80;;;455.40;;
5237;SDS011;2639;49.700;7.962;2022-12-07T14:41:18;456.07;;;435.77;;
5237;SDS011;2639;49.700;7.962;2022-12-07T14:44:43;456.47;;;437.20;;
5237;SDS011;2639;49.700;7.962;2022-12-07T14:47:54;458.43;;;438.97;;
5237;SDS011;2639;49.700;7.962;2022-12-07T14:51:24;500.30;;;478.37;;
5237;SDS011;2639;49.700;7.962;2022-12-07T14:54:54;624.40;;;593.37;;
5237;SDS011;2639;49.700;7.962;2022-12-07T14:58:04;448.77;;;429.67;;
5237;SDS011;2639;49.700;7.962;2022-12-07T15:04:47;529.60;;;505.30;;
5237;SDS011;2639;49.700;7.962;2022-12-07T15:07:57;574.13;;;547.37;;
5237;SDS011;2639;49.700;7.962;2022-12-07T15:11:08;553.07;;;527.00;;
5237;SDS011;2639;49.700;7.962;2022-12-07T15:14:19;614.30;;;584.07;;
5237;SDS011;2639;49.700;7.962;2022-12-07T15:17:29;626.37;;;595.57;;
5237;SDS011;2639;49.700;7.962;2022-12-07T15:20:41;742.87;;;701.27;;
5237;SDS011;2639;49.700;7.962;2022-12-07T15:23:51;572.43;;;545.47;;
5237;SDS011;2639;49.700;7.962;2022-12-07T15:27:02;651.43;;;618.47;;
5237;SDS011;2639;49.700;7.962;2022-12-07T15:30:13;715.77;;;677.37;;
5237;SDS011;2639;49.700;7.962;2022-12-07T15:33:23;538.23;;;512.37;;
5237;SDS011;2639;49.700;7.962;2022-12-07T15:36:34;653.30;;;619.73;;
5237;SDS011;2639;49.700;7.962;2022-12-07T15:39:44;640.33;;;608.07;;
5237;SDS011;2639;49.700;7.962;2022-12-07T15:42:54;668.27;;;633.80;;
5237;SDS011;2639;49.700;7.962;2022-12-07T15:46:07;627.97;;;596.50;;
5237;SDS011;2639;49.700;7.962;2022-12-07T15:49:17;734.90;;;693.57;;
5237;SDS011;2639;49.700;7.962;2022-12-07T15:52:29;693.10;;;655.67;;
5237;SDS011;2639;49.700;7.962;2022-12-07T15:55:39;687.10;;;650.23;;
5237;SDS011;2639;49.700;7.962;2022-12-07T15:58:49;675.97;;;640.67;;
5237;SDS011;2639;49.700;7.962;2022-12-07T16:02:00;684.03;;;648.37;;
5237;SDS011;2639;49.700;7.962;2022-12-07T16:05:10;699.80;;;662.53;;
5237;SDS011;2639;49.700;7.962;2022-12-07T16:08:21;745.70;;;703.80;;
5237;SDS011;2639;49.700;7.962;2022-12-07T16:11:31;764.83;;;720.57;;
5237;SDS011;2639;49.700;7.962;2022-12-07T16:14:42;729.07;;;688.20;;
5237;SDS011;2639;49.700;7.962;2022-12-07T16:17:52;643.63;;;610.97;;
5237;SDS011;2639;49.700;7.962;2022-12-07T16:21:03;664.73;;;629.80;;
5237;SDS011;2639;49.700;7.962;2022-12-07T16:24:15;773.67;;;727.83;;
5237;SDS011;2639;49.700;7.962;2022-12-07T16:38:25;724.60;;;683.90;;
5237;SDS011;2639;49.700;7.962;2022-12-07T16:41:37;641.80;;;608.83;;
5237;SDS011;2639;49.700;7.962;2022-12-07T16:44:47;706.43;;;667.93;;
5237;SDS011;2639;49.700;7.962;2022-12-07T16:47:57;809.70;;;760.47;;
5237;SDS011;2639;49.700;7.962;2022-12-07T16:51:08;790.87;;;743.33;;
5237;SDS011;2639;49.700;7.962;2022-12-07T16:54:19;820.37;;;770.57;;
5237;SDS011;2639;49.700;7.962;2022-12-07T16:57:31;790.40;;;742.67;;
5237;SDS011;2639;49.700;7.962;2022-12-07T17:00:41;792.23;;;739.97;;
5237;SDS011;2639;49.700;7.962;2022-12-07T17:03:52;826.10;;;772.43;;
5237;SDS011;2639;49.700;7.962;2022-12-07T17:07:02;799.17;;;748.63;;
5237;SDS011;2639;49.700;7.962;2022-12-07T17:10:12;853.63;;;796.97;;
5237;SDS011;2639;49.700;7.962;2022-12-07T17:13:23;850.77;;;794.83;;
5237;SDS011;2639;49.700;7.962;2022-12-07T17:16:44;792.57;;;744.73;;
5237;SDS011;2639;49.700;7.962;2022-12-07T17:19:55;770.10;;;724.13;;
5237;SDS011;2639;49.700;7.962;2022-12-07T17:23:05;810.30;;;759.33;;
5237;SDS011;2639;49.700;7.962;2022-12-07T17:26:16;782.67;;;736.10;;
5237;SDS011;2639;49.700;7.962;2022-12-07T17:29:29;779.80;;;733.27;;
5237;SDS011;2639;49.700;7.962;2022-12-07T17:32:42;821.03;;;770.00;;
5237;SDS011;2639;49.700;7.962;2022-12-07T17:35:52;790.10;;;743.10;;
5237;SDS011;2639;49.700;7.962;2022-12-07T17:39:05;773.10;;;728.00;;
5237;SDS011;2639;49.700;7.962;2022-12-07T17:42:16;765.03;;;720.07;;
5237;SDS011;2639;49.700;7.962;2022-12-07T17:45:38;723.27;;;682.00;;
5237;SDS011;2639;49.700;7.962;2022-12-07T17:48:49;747.00;;;704.07;;
5237;SDS011;2639;49.700;7.962;2022-12-07T17:51:59;713.43;;;673.40;;
5237;SDS011;2639;49.700;7.962;2022-12-07T17:55:23;760.93;;;717.20;;
5237;SDS011;2639;49.700;7.962;2022-12-07T17:58:33;718.20;;;678.23;;
5237;SDS011;2639;49.700;7.962;2022-12-07T18:01:45;713.33;;;671.80;;
5237;SDS011;2639;49.700;7.962;2022-12-07T18:04:55;755.47;;;711.33;;
5237;SDS011;2639;49.700;7.962;2022-12-07T18:08:05;688.37;;;651.60;;
5237;SDS011;2639;49.700;7.962;2022-12-07T18:11:16;673.23;;;637.30;;
5237;SDS011;2639;49.700;7.962;2022-12-07T18:14:26;733.93;;;691.53;;
5237;SDS011;2639;49.700;7.962;2022-12-07T18:17:38;664.63;;;629.90;;
5237;SDS011;2639;49.700;7.962;2022-12-07T18:20:50;664.57;;;629.27;;
5237;SDS011;2639;49.700;7.962;2022-12-07T18:24:00;656.13;;;621.70;;
5237;SDS011;2639;49.700;7.962;2022-12-07T18:27:12;630.17;;;597.70;;
5237;SDS011;2639;49.700;7.962;2022-12-07T18:30:22;688.13;;;650.30;;
5237;SDS011;2639;49.700;7.962;2022-12-07T18:33:54;654.23;;;619.23;;
5237;SDS011;2639;49.700;7.962;2022-12-07T18:37:04;640.03;;;606.13;;
5237;SDS011;2639;49.700;7.962;2022-12-07T18:40:14;636.10;;;603.50;;
5237;SDS011;2639;49.700;7.962;2022-12-07T18:43:24;732.00;;;691.57;;
5237;SDS011;2639;49.700;7.962;2022-12-07T18:46:35;672.17;;;634.33;;
5237;SDS011;2639;49.700;7.962;2022-12-07T18:49:47;655.90;;;620.17;;
5237;SDS011;2639;49.700;7.962;2022-12-07T18:52:57;657.40;;;622.33;;
5237;SDS011;2639;49.700;7.962;2022-12-07T18:56:09;634.77;;;601.53;;
5237;SDS011;2639;49.700;7.962;2022-12-07T18:59:21;728.30;;;686.27;;
5237;SDS011;2639;49.700;7.962;2022-12-07T19:02:45;692.47;;;654.43;;
5237;SDS011;2639;49.700;7.962;2022-12-07T19:05:56;744.10;;;701.60;;
5237;SDS011;2639;49.700;7.962;2022-12-07T19:09:06;742.70;;;699.87;;
5237;SDS011;2639;49.700;7.962;2022-12-07T19:12:17;725.20;;;682.40;;
5237;SDS011;2639;49.700;7.962;2022-12-07T19:15:27;768.80;;;723.00;;
5237;SDS011;2639;49.700;7.962;2022-12-07T19:18:37;733.57;;;691.20;;
5237;SDS011;2639;49.700;7.962;2022-12-07T19:21:49;752.53;;;708.23;;
5237;SDS011;2639;49.700;7.962;2022-12-07T19:24:59;662.13;;;626.77;;
5237;SDS011;2639;49.700;7.962;2022-12-07T19:28:11;677.03;;;639.37;;
5237;SDS011;2639;49.700;7.962;2022-12-07T19:31:21;713.57;;;672.80;;
5237;SDS011;2639;49.700;7.962;2022-12-07T19:34:32;660.60;;;624.80;;
5237;SDS011;2639;49.700;7.962;2022-12-07T19:37:43;650.57;;;615.97;;
5237;SDS011;2639;49.700;7.962;2022-12-07T19:40:53;694.40;;;656.83;;
5237;SDS011;2639;49.700;7.962;2022-12-07T19:44:04;679.80;;;643.10;;
5237;SDS011;2639;49.700;7.962;2022-12-07T19:47:16;698.40;;;660.10;;
5237;SDS011;2639;49.700;7.962;2022-12-07T19:50:26;704.43;;;664.83;;
5237;SDS011;2639;49.700;7.962;2022-12-07T19:53:37;695.87;;;657.83;;
5237;SDS011;2639;49.700;7.962;2022-12-07T19:56:47;652.90;;;618.20;;
5237;SDS011;2639;49.700;7.962;2022-12-07T19:59:58;743.43;;;700.67;;
5237;SDS011;2639;49.700;7.962;2022-12-07T20:03:11;672.77;;;636.63;;
5237;SDS011;2639;49.700;7.962;2022-12-07T20:06:22;587.70;;;558.50;;
5237;SDS011;2639;49.700;7.962;2022-12-07T20:09:34;593.17;;;564.10;;
5237;SDS011;2639;49.700;7.962;2022-12-07T20:12:44;614.93;;;583.23;;
5237;SDS011;2639;49.700;7.962;2022-12-07T20:16:05;626.37;;;594.43;;
5237;SDS011;2639;49.700;7.962;2022-12-07T20:19:27;697.20;;;659.03;;
5237;SDS011;2639;49.700;7.962;2022-12-07T20:22:37;654.67;;;620.70;;
5237;SDS011;2639;49.700;7.962;2022-12-07T20:25:48;635.07;;;602.50;;
5237;SDS011;2639;49.700;7.962;2022-12-07T20:28:58;610.80;;;579.90;;
5237;SDS011;2639;49.700;7.962;2022-12-07T20:32:16;664.97;;;629.63;;
5237;SDS011;2639;49.700;7.962;2022-12-07T20:35:26;593.70;;;564.47;;
5237;SDS011;2639;49.700;7.962;2022-12-07T20:38:36;590.60;;;560.50;;
5237;SDS011;2639;49.700;7.962;2022-12-07T20:41:47;556.47;;;529.97;;
5237;SDS011;2639;49.700;7.962;2022-12-07T20:45:09;615.07;;;584.10;;
5237;SDS011;2639;49.700;7.962;2022-12-07T20:48:19;667.47;;;632.53;;
5237;SDS011;2639;49.700;7.962;2022-12-07T20:51:30;655.47;;;620.20;;
5237;SDS011;2639;49.700;7.962;2022-12-07T20:54:40;573.00;;;544.97;;
5237;SDS011;2639;49.700;7.962;2022-12-07T20:57:51;608.17;;;577.90;;
5237;SDS011;2639;49.700;7.962;2022-12-07T21:01:02;606.30;;;576.27;;
5237;SDS011;2639;49.700;7.962;2022-12-07T21:04:12;623.67;;;590.37;;
